CheckWX is a tool to help pilots better visualize weather data.  It is not intended as a substitute for an official pre-flight weather briefing.

07:32:17 UTC

KISO METAR
Kinston Regional Jetport at Stallings Field Airport
Kinston, North Carolina, USA
Current

12 mins ago

KISO 230720Z AUTO 00000KT 10SM CLR 17/16 A3010 RMK AO2 T01710157
Observed
Sep-23 @ 07:20 UTC
Visibility
10 SM
Flight Rules
VFR
Cloud Levels
  • Clear skies
Temperature
17°C / 63°F
Dewpoint
16°C / 61°F
Humidity
94%
Altimeter
30.1" Hg
Pressure
1019.32 hPa
Previous

32 mins ago

KISO 230700Z AUTO 23003KT 10SM CLR 17/15 A3010 RMK AO2 T01660154
Observed
Sep-23 @ 07:00 UTC
Wind
  • 230° at 3 KTS
Visibility
10 SM
Flight Rules
VFR
Cloud Levels
  • Clear skies
Temperature
17°C / 63°F
Dewpoint
15°C / 59°F
Humidity
88%
Altimeter
30.1" Hg
Pressure
1019.32 hPa
Previous

52 mins ago

KISO 230640Z AUTO 20003KT 10SM CLR 17/16 A3011 RMK AO2 T01670155
Observed
Sep-23 @ 06:40 UTC
Wind
  • 200° at 3 KTS
Visibility
10 SM
Flight Rules
VFR
Cloud Levels
  • Clear skies
Temperature
17°C / 63°F
Dewpoint
16°C / 61°F
Humidity
94%
Altimeter
30.11" Hg
Pressure
1019.62 hPa